sensor_id;sensor_type;location;lat;lon;timestamp;P1;durP1;ratioP1;P2;durP2;ratioP2
41687;SDS011;27371;42.686;23.362;2024-01-30T00:02:12;4.57;;;3.13;;
41687;SDS011;27371;42.686;23.362;2024-01-30T00:04:38;6.70;;;3.30;;
41687;SDS011;27371;42.686;23.362;2024-01-30T00:07:03;5.82;;;3.20;;
41687;SDS011;27371;42.686;23.362;2024-01-30T00:09:28;7.55;;;3.65;;
41687;SDS011;27371;42.686;23.362;2024-01-30T00:11:54;5.13;;;3.13;;
41687;SDS011;27371;42.686;23.362;2024-01-30T00:14:19;4.80;;;3.15;;
41687;SDS011;27371;42.686;23.362;2024-01-30T00:16:45;6.05;;;3.15;;
41687;SDS011;27371;42.686;23.362;2024-01-30T00:19:10;4.63;;;3.05;;
41687;SDS011;27371;42.686;23.362;2024-01-30T00:21:35;5.53;;;3.35;;
41687;SDS011;27371;42.686;23.362;2024-01-30T00:24:01;6.18;;;3.47;;
41687;SDS011;27371;42.686;23.362;2024-01-30T00:26:26;6.20;;;3.20;;
41687;SDS011;27371;42.686;23.362;2024-01-30T00:28:52;5.93;;;3.03;;
41687;SDS011;27371;42.686;23.362;2024-01-30T00:31:17;6.10;;;3.45;;
41687;SDS011;27371;42.686;23.362;2024-01-30T00:33:42;5.55;;;3.50;;
41687;SDS011;27371;42.686;23.362;2024-01-30T00:36:08;5.30;;;3.20;;
41687;SDS011;27371;42.686;23.362;2024-01-30T00:38:34;5.78;;;3.30;;
41687;SDS011;27371;42.686;23.362;2024-01-30T00:40:59;4.57;;;2.90;;
41687;SDS011;27371;42.686;23.362;2024-01-30T00:43:25;8.32;;;3.70;;
41687;SDS011;27371;42.686;23.362;2024-01-30T00:45:50;6.88;;;3.40;;
41687;SDS011;27371;42.686;23.362;2024-01-30T00:48:17;8.80;;;4.18;;
41687;SDS011;27371;42.686;23.362;2024-01-30T00:50:43;7.35;;;3.70;;
41687;SDS011;27371;42.686;23.362;2024-01-30T00:53:08;6.97;;;4.03;;
41687;SDS011;27371;42.686;23.362;2024-01-30T00:55:33;6.95;;;3.72;;
41687;SDS011;27371;42.686;23.362;2024-01-30T00:57:59;5.90;;;3.72;;
41687;SDS011;27371;42.686;23.362;2024-01-30T01:03:01;5.28;;;3.53;;
41687;SDS011;27371;42.686;23.362;2024-01-30T01:05:26;8.15;;;3.67;;
41687;SDS011;27371;42.686;23.362;2024-01-30T01:07:52;4.93;;;3.28;;
41687;SDS011;27371;42.686;23.362;2024-01-30T01:10:17;6.05;;;3.70;;
41687;SDS011;27371;42.686;23.362;2024-01-30T01:12:43;6.53;;;3.60;;
41687;SDS011;27371;42.686;23.362;2024-01-30T01:15:08;8.25;;;3.40;;
41687;SDS011;27371;42.686;23.362;2024-01-30T01:17:40;6.20;;;3.33;;
41687;SDS011;27371;42.686;23.362;2024-01-30T01:20:06;9.27;;;5.05;;
41687;SDS011;27371;42.686;23.362;2024-01-30T01:22:32;8.30;;;4.15;;
41687;SDS011;27371;42.686;23.362;2024-01-30T01:24:58;5.68;;;3.30;;
41687;SDS011;27371;42.686;23.362;2024-01-30T01:27:24;5.65;;;3.60;;
41687;SDS011;27371;42.686;23.362;2024-01-30T01:29:50;7.07;;;3.80;;
41687;SDS011;27371;42.686;23.362;2024-01-30T01:32:15;10.55;;;4.15;;
41687;SDS011;27371;42.686;23.362;2024-01-30T01:34:41;10.77;;;4.70;;
41687;SDS011;27371;42.686;23.362;2024-01-30T01:37:06;7.03;;;3.55;;
41687;SDS011;27371;42.686;23.362;2024-01-30T01:39:32;11.30;;;3.38;;
41687;SDS011;27371;42.686;23.362;2024-01-30T01:41:57;5.70;;;2.85;;
41687;SDS011;27371;42.686;23.362;2024-01-30T01:44:23;5.68;;;3.00;;
41687;SDS011;27371;42.686;23.362;2024-01-30T01:46:48;4.40;;;2.90;;
41687;SDS011;27371;42.686;23.362;2024-01-30T01:49:14;6.30;;;3.53;;
41687;SDS011;27371;42.686;23.362;2024-01-30T01:51:39;5.60;;;3.47;;
41687;SDS011;27371;42.686;23.362;2024-01-30T01:54:06;5.55;;;3.30;;
41687;SDS011;27371;42.686;23.362;2024-01-30T01:56:32;7.05;;;3.42;;
41687;SDS011;27371;42.686;23.362;2024-01-30T01:59:04;7.18;;;3.38;;
41687;SDS011;27371;42.686;23.362;2024-01-30T02:01:31;6.10;;;3.30;;
41687;SDS011;27371;42.686;23.362;2024-01-30T02:03:58;4.80;;;2.72;;
41687;SDS011;27371;42.686;23.362;2024-01-30T02:06:23;5.75;;;3.50;;
41687;SDS011;27371;42.686;23.362;2024-01-30T02:08:48;3.63;;;2.60;;
41687;SDS011;27371;42.686;23.362;2024-01-30T02:11:14;4.65;;;3.30;;
41687;SDS011;27371;42.686;23.362;2024-01-30T02:13:40;5.47;;;3.20;;
41687;SDS011;27371;42.686;23.362;2024-01-30T02:16:06;4.55;;;2.97;;
41687;SDS011;27371;42.686;23.362;2024-01-30T02:18:31;6.50;;;3.22;;
41687;SDS011;27371;42.686;23.362;2024-01-30T02:20:57;6.07;;;3.42;;
41687;SDS011;27371;42.686;23.362;2024-01-30T02:23:24;6.75;;;4.03;;
41687;SDS011;27371;42.686;23.362;2024-01-30T02:25:50;5.35;;;3.45;;
41687;SDS011;27371;42.686;23.362;2024-01-30T02:28:18;7.63;;;3.78;;
41687;SDS011;27371;42.686;23.362;2024-01-30T02:30:43;8.85;;;3.75;;
41687;SDS011;27371;42.686;23.362;2024-01-30T02:33:08;5.88;;;3.58;;
41687;SDS011;27371;42.686;23.362;2024-01-30T02:35:34;5.97;;;3.10;;
41687;SDS011;27371;42.686;23.362;2024-01-30T02:38:00;6.63;;;3.35;;
41687;SDS011;27371;42.686;23.362;2024-01-30T02:40:25;5.47;;;2.78;;
41687;SDS011;27371;42.686;23.362;2024-01-30T02:42:51;5.20;;;3.20;;
41687;SDS011;27371;42.686;23.362;2024-01-30T02:45:16;4.47;;;2.60;;
41687;SDS011;27371;42.686;23.362;2024-01-30T02:47:41;5.88;;;3.08;;
41687;SDS011;27371;42.686;23.362;2024-01-30T02:50:07;6.13;;;3.13;;
41687;SDS011;27371;42.686;23.362;2024-01-30T02:52:32;6.15;;;3.42;;
41687;SDS011;27371;42.686;23.362;2024-01-30T02:54:58;5.45;;;3.28;;
41687;SDS011;27371;42.686;23.362;2024-01-30T02:57:23;7.00;;;3.97;;
41687;SDS011;27371;42.686;23.362;2024-01-30T02:59:49;5.20;;;3.25;;
41687;SDS011;27371;42.686;23.362;2024-01-30T03:02:14;5.10;;;3.00;;
41687;SDS011;27371;42.686;23.362;2024-01-30T03:04:43;4.57;;;2.65;;
41687;SDS011;27371;42.686;23.362;2024-01-30T03:07:08;4.10;;;2.58;;
41687;SDS011;27371;42.686;23.362;2024-01-30T03:09:34;5.25;;;2.80;;
41687;SDS011;27371;42.686;23.362;2024-01-30T03:12:00;4.68;;;2.72;;
41687;SDS011;27371;42.686;23.362;2024-01-30T03:14:43;4.95;;;2.83;;
41687;SDS011;27371;42.686;23.362;2024-01-30T03:17:09;6.40;;;3.55;;
41687;SDS011;27371;42.686;23.362;2024-01-30T03:19:34;5.00;;;3.00;;
41687;SDS011;27371;42.686;23.362;2024-01-30T03:21:59;5.55;;;2.78;;
41687;SDS011;27371;42.686;23.362;2024-01-30T03:24:25;4.80;;;2.67;;
41687;SDS011;27371;42.686;23.362;2024-01-30T03:26:50;5.80;;;2.80;;
41687;SDS011;27371;42.686;23.362;2024-01-30T03:29:15;4.25;;;2.90;;
41687;SDS011;27371;42.686;23.362;2024-01-30T03:31:41;4.15;;;2.85;;
41687;SDS011;27371;42.686;23.362;2024-01-30T03:34:06;5.80;;;3.05;;
41687;SDS011;27371;42.686;23.362;2024-01-30T03:36:32;5.60;;;2.97;;
41687;SDS011;27371;42.686;23.362;2024-01-30T03:38:59;6.13;;;3.65;;
41687;SDS011;27371;42.686;23.362;2024-01-30T03:41:27;8.80;;;4.32;;
41687;SDS011;27371;42.686;23.362;2024-01-30T03:43:53;9.55;;;4.35;;
41687;SDS011;27371;42.686;23.362;2024-01-30T03:46:18;5.78;;;3.20;;
41687;SDS011;27371;42.686;23.362;2024-01-30T03:48:44;5.72;;;3.13;;
41687;SDS011;27371;42.686;23.362;2024-01-30T03:51:10;5.28;;;2.50;;
41687;SDS011;27371;42.686;23.362;2024-01-30T03:53:40;4.07;;;2.25;;
41687;SDS011;27371;42.686;23.362;2024-01-30T03:56:05;5.80;;;2.80;;
41687;SDS011;27371;42.686;23.362;2024-01-30T03:58:31;6.80;;;2.83;;
41687;SDS011;27371;42.686;23.362;2024-01-30T04:00:56;5.72;;;3.03;;
41687;SDS011;27371;42.686;23.362;2024-01-30T04:03:21;4.72;;;2.35;;
41687;SDS011;27371;42.686;23.362;2024-01-30T04:05:47;7.35;;;3.67;;
41687;SDS011;27371;42.686;23.362;2024-01-30T04:08:12;4.97;;;2.50;;
41687;SDS011;27371;42.686;23.362;2024-01-30T04:10:37;5.55;;;2.55;;
41687;SDS011;27371;42.686;23.362;2024-01-30T04:13:03;6.07;;;3.25;;
41687;SDS011;27371;42.686;23.362;2024-01-30T04:15:28;5.63;;;2.95;;
41687;SDS011;27371;42.686;23.362;2024-01-30T04:17:57;4.85;;;2.95;;
41687;SDS011;27371;42.686;23.362;2024-01-30T04:20:22;5.80;;;3.15;;
41687;SDS011;27371;42.686;23.362;2024-01-30T04:22:48;6.18;;;3.47;;
41687;SDS011;27371;42.686;23.362;2024-01-30T04:25:13;6.95;;;3.70;;
41687;SDS011;27371;42.686;23.362;2024-01-30T04:27:39;6.60;;;3.55;;
41687;SDS011;27371;42.686;23.362;2024-01-30T04:30:04;6.03;;;3.00;;
41687;SDS011;27371;42.686;23.362;2024-01-30T04:32:30;8.23;;;2.95;;
41687;SDS011;27371;42.686;23.362;2024-01-30T04:34:55;4.75;;;2.83;;
41687;SDS011;27371;42.686;23.362;2024-01-30T04:37:21;5.65;;;2.80;;
41687;SDS011;27371;42.686;23.362;2024-01-30T04:39:46;6.72;;;3.40;;
41687;SDS011;27371;42.686;23.362;2024-01-30T04:42:12;6.03;;;3.47;;
41687;SDS011;27371;42.686;23.362;2024-01-30T04:44:37;4.43;;;2.55;;
41687;SDS011;27371;42.686;23.362;2024-01-30T04:47:02;5.78;;;2.47;;
41687;SDS011;27371;42.686;23.362;2024-01-30T04:49:30;4.78;;;2.50;;
41687;SDS011;27371;42.686;23.362;2024-01-30T04:51:55;6.20;;;3.80;;
41687;SDS011;27371;42.686;23.362;2024-01-30T04:54:21;6.78;;;3.92;;
41687;SDS011;27371;42.686;23.362;2024-01-30T04:56:46;4.50;;;3.05;;
41687;SDS011;27371;42.686;23.362;2024-01-30T04:59:12;7.25;;;3.55;;
41687;SDS011;27371;42.686;23.362;2024-01-30T05:01:37;6.20;;;3.42;;
41687;SDS011;27371;42.686;23.362;2024-01-30T05:04:02;5.15;;;3.50;;
41687;SDS011;27371;42.686;23.362;2024-01-30T05:06:28;4.57;;;2.80;;
41687;SDS011;27371;42.686;23.362;2024-01-30T05:08:54;6.57;;;3.13;;
41687;SDS011;27371;42.686;23.362;2024-01-30T05:11:19;5.93;;;3.28;;
41687;SDS011;27371;42.686;23.362;2024-01-30T05:13:44;4.68;;;3.10;;
41687;SDS011;27371;42.686;23.362;2024-01-30T05:16:10;4.88;;;2.80;;
41687;SDS011;27371;42.686;23.362;2024-01-30T05:18:35;5.70;;;3.22;;
41687;SDS011;27371;42.686;23.362;2024-01-30T05:21:01;8.38;;;3.20;;
41687;SDS011;27371;42.686;23.362;2024-01-30T05:23:27;7.82;;;4.15;;
41687;SDS011;27371;42.686;23.362;2024-01-30T05:25:52;6.18;;;3.63;;
41687;SDS011;27371;42.686;23.362;2024-01-30T05:28:18;7.65;;;3.08;;
41687;SDS011;27371;42.686;23.362;2024-01-30T05:30:43;5.60;;;3.55;;
41687;SDS011;27371;42.686;23.362;2024-01-30T05:33:08;9.05;;;4.30;;
41687;SDS011;27371;42.686;23.362;2024-01-30T05:35:34;7.75;;;3.58;;
41687;SDS011;27371;42.686;23.362;2024-01-30T05:38:00;5.90;;;3.13;;
41687;SDS011;27371;42.686;23.362;2024-01-30T05:40:25;7.47;;;2.90;;
41687;SDS011;27371;42.686;23.362;2024-01-30T05:42:50;6.22;;;3.38;;
41687;SDS011;27371;42.686;23.362;2024-01-30T05:45:16;8.30;;;3.55;;
41687;SDS011;27371;42.686;23.362;2024-01-30T05:47:41;7.28;;;3.65;;
41687;SDS011;27371;42.686;23.362;2024-01-30T05:50:07;8.73;;;3.42;;
41687;SDS011;27371;42.686;23.362;2024-01-30T05:52:32;5.40;;;3.40;;
41687;SDS011;27371;42.686;23.362;2024-01-30T05:54:57;9.35;;;4.30;;
41687;SDS011;27371;42.686;23.362;2024-01-30T05:57:23;6.60;;;3.72;;
41687;SDS011;27371;42.686;23.362;2024-01-30T05:59:48;7.43;;;3.60;;
41687;SDS011;27371;42.686;23.362;2024-01-30T06:02:16;9.77;;;4.20;;
41687;SDS011;27371;42.686;23.362;2024-01-30T06:04:41;9.38;;;4.65;;
41687;SDS011;27371;42.686;23.362;2024-01-30T06:07:07;13.73;;;7.35;;
41687;SDS011;27371;42.686;23.362;2024-01-30T06:09:33;6.85;;;4.80;;
41687;SDS011;27371;42.686;23.362;2024-01-30T06:11:58;8.80;;;4.22;;
41687;SDS011;27371;42.686;23.362;2024-01-30T06:14:23;7.68;;;4.70;;
41687;SDS011;27371;42.686;23.362;2024-01-30T06:16:50;9.38;;;4.28;;
41687;SDS011;27371;42.686;23.362;2024-01-30T06:19:15;11.55;;;5.22;;
41687;SDS011;27371;42.686;23.362;2024-01-30T06:21:41;12.05;;;5.07;;
41687;SDS011;27371;42.686;23.362;2024-01-30T06:24:06;14.35;;;6.80;;
41687;SDS011;27371;42.686;23.362;2024-01-30T06:26:31;15.60;;;5.75;;
41687;SDS011;27371;42.686;23.362;2024-01-30T06:28:57;14.45;;;6.03;;
41687;SDS011;27371;42.686;23.362;2024-01-30T06:31:22;10.13;;;5.10;;
41687;SDS011;27371;42.686;23.362;2024-01-30T06:33:48;8.27;;;3.83;;
41687;SDS011;27371;42.686;23.362;2024-01-30T06:36:13;10.23;;;4.65;;
41687;SDS011;27371;42.686;23.362;2024-01-30T06:38:39;6.40;;;2.83;;
41687;SDS011;27371;42.686;23.362;2024-01-30T06:41:04;10.63;;;4.18;;
41687;SDS011;27371;42.686;23.362;2024-01-30T06:43:29;6.13;;;3.60;;
41687;SDS011;27371;42.686;23.362;2024-01-30T06:45:55;7.47;;;3.53;;
41687;SDS011;27371;42.686;23.362;2024-01-30T06:48:20;10.10;;;3.78;;
41687;SDS011;27371;42.686;23.362;2024-01-30T06:50:45;7.85;;;3.33;;
41687;SDS011;27371;42.686;23.362;2024-01-30T06:53:11;10.20;;;4.18;;
41687;SDS011;27371;42.686;23.362;2024-01-30T06:55:36;7.00;;;4.07;;
41687;SDS011;27371;42.686;23.362;2024-01-30T06:58:02;10.85;;;4.35;;
41687;SDS011;27371;42.686;23.362;2024-01-30T07:00:27;12.25;;;3.65;;
41687;SDS011;27371;42.686;23.362;2024-01-30T07:02:52;6.38;;;3.80;;
41687;SDS011;27371;42.686;23.362;2024-01-30T07:05:18;9.02;;;3.67;;
41687;SDS011;27371;42.686;23.362;2024-01-30T07:07:43;10.93;;;4.03;;
41687;SDS011;27371;42.686;23.362;2024-01-30T07:10:08;5.80;;;3.80;;
41687;SDS011;27371;42.686;23.362;2024-01-30T07:12:34;5.65;;;3.05;;
41687;SDS011;27371;42.686;23.362;2024-01-30T07:14:59;11.65;;;3.50;;
41687;SDS011;27371;42.686;23.362;2024-01-30T07:17:25;6.18;;;3.40;;
41687;SDS011;27371;42.686;23.362;2024-01-30T07:19:50;6.60;;;3.00;;
41687;SDS011;27371;42.686;23.362;2024-01-30T07:22:15;8.40;;;2.60;;
41687;SDS011;27371;42.686;23.362;2024-01-30T07:24:44;11.00;;;3.17;;
41687;SDS011;27371;42.686;23.362;2024-01-30T07:27:13;7.15;;;3.65;;
41687;SDS011;27371;42.686;23.362;2024-01-30T07:29:39;4.85;;;3.08;;
41687;SDS011;27371;42.686;23.362;2024-01-30T07:32:04;7.53;;;2.95;;
41687;SDS011;27371;42.686;23.362;2024-01-30T07:34:30;8.32;;;2.47;;
41687;SDS011;27371;42.686;23.362;2024-01-30T07:36:55;3.75;;;2.60;;
41687;SDS011;27371;42.686;23.362;2024-01-30T07:39:20;3.90;;;2.20;;
41687;SDS011;27371;42.686;23.362;2024-01-30T07:41:46;7.95;;;2.20;;
41687;SDS011;27371;42.686;23.362;2024-01-30T07:44:11;6.05;;;2.00;;
41687;SDS011;27371;42.686;23.362;2024-01-30T07:46:37;5.72;;;2.40;;
41687;SDS011;27371;42.686;23.362;2024-01-30T07:49:02;7.10;;;2.40;;
41687;SDS011;27371;42.686;23.362;2024-01-30T07:51:28;6.05;;;2.17;;
41687;SDS011;27371;42.686;23.362;2024-01-30T07:53:54;4.53;;;2.40;;
41687;SDS011;27371;42.686;23.362;2024-01-30T07:56:20;5.55;;;2.53;;
41687;SDS011;27371;42.686;23.362;2024-01-30T07:58:45;7.03;;;2.60;;
41687;SDS011;27371;42.686;23.362;2024-01-30T08:01:11;4.80;;;2.42;;
41687;SDS011;27371;42.686;23.362;2024-01-30T08:03:36;6.38;;;2.38;;
41687;SDS011;27371;42.686;23.362;2024-01-30T08:06:02;3.28;;;2.30;;
41687;SDS011;27371;42.686;23.362;2024-01-30T08:08:28;7.10;;;2.80;;
41687;SDS011;27371;42.686;23.362;2024-01-30T08:10:53;10.45;;;6.65;;
41687;SDS011;27371;42.686;23.362;2024-01-30T08:13:18;4.13;;;2.58;;
41687;SDS011;27371;42.686;23.362;2024-01-30T08:15:44;6.53;;;2.80;;
41687;SDS011;27371;42.686;23.362;2024-01-30T08:18:09;5.00;;;2.28;;
41687;SDS011;27371;42.686;23.362;2024-01-30T08:20:35;3.28;;;2.22;;
41687;SDS011;27371;42.686;23.362;2024-01-30T08:23:00;5.75;;;2.42;;
41687;SDS011;27371;42.686;23.362;2024-01-30T08:25:25;5.57;;;2.42;;
41687;SDS011;27371;42.686;23.362;2024-01-30T08:27:51;2.90;;;1.77;;
41687;SDS011;27371;42.686;23.362;2024-01-30T08:30:16;5.20;;;2.25;;
41687;SDS011;27371;42.686;23.362;2024-01-30T08:32:42;12.63;;;2.95;;
41687;SDS011;27371;42.686;23.362;2024-01-30T08:35:07;5.78;;;2.90;;
41687;SDS011;27371;42.686;23.362;2024-01-30T08:37:33;4.32;;;2.67;;
41687;SDS011;27371;42.686;23.362;2024-01-30T08:39:59;4.95;;;2.97;;
41687;SDS011;27371;42.686;23.362;2024-01-30T08:42:24;10.20;;;3.22;;
41687;SDS011;27371;42.686;23.362;2024-01-30T08:44:50;5.85;;;3.20;;
41687;SDS011;27371;42.686;23.362;2024-01-30T08:47:17;5.93;;;2.90;;
41687;SDS011;27371;42.686;23.362;2024-01-30T08:49:43;7.32;;;3.13;;
41687;SDS011;27371;42.686;23.362;2024-01-30T08:52:09;7.32;;;3.08;;
41687;SDS011;27371;42.686;23.362;2024-01-30T08:54:35;3.28;;;2.25;;
41687;SDS011;27371;42.686;23.362;2024-01-30T08:57:00;4.68;;;2.75;;
41687;SDS011;27371;42.686;23.362;2024-01-30T08:59:25;10.95;;;3.05;;
41687;SDS011;27371;42.686;23.362;2024-01-30T09:01:51;4.13;;;2.33;;
41687;SDS011;27371;42.686;23.362;2024-01-30T09:04:19;4.43;;;2.60;;
41687;SDS011;27371;42.686;23.362;2024-01-30T09:06:45;6.75;;;2.95;;
41687;SDS011;27371;42.686;23.362;2024-01-30T09:09:10;4.60;;;2.38;;
41687;SDS011;27371;42.686;23.362;2024-01-30T09:11:35;6.00;;;3.58;;
41687;SDS011;27371;42.686;23.362;2024-01-30T09:14:01;6.03;;;2.70;;
41687;SDS011;27371;42.686;23.362;2024-01-30T09:16:26;4.53;;;2.85;;
41687;SDS011;27371;42.686;23.362;2024-01-30T09:18:51;4.13;;;2.75;;
41687;SDS011;27371;42.686;23.362;2024-01-30T09:21:17;7.40;;;3.25;;
41687;SDS011;27371;42.686;23.362;2024-01-30T09:23:42;9.02;;;3.83;;
41687;SDS011;27371;42.686;23.362;2024-01-30T09:26:08;8.43;;;3.90;;
41687;SDS011;27371;42.686;23.362;2024-01-30T09:28:33;6.78;;;2.47;;
41687;SDS011;27371;42.686;23.362;2024-01-30T09:30:59;4.28;;;2.20;;
41687;SDS011;27371;42.686;23.362;2024-01-30T09:33:24;4.28;;;2.38;;
41687;SDS011;27371;42.686;23.362;2024-01-30T09:35:49;4.70;;;2.63;;
41687;SDS011;27371;42.686;23.362;2024-01-30T09:38:16;3.80;;;2.17;;
41687;SDS011;27371;42.686;23.362;2024-01-30T09:40:41;3.47;;;2.17;;
41687;SDS011;27371;42.686;23.362;2024-01-30T09:43:07;3.67;;;2.35;;
41687;SDS011;27371;42.686;23.362;2024-01-30T09:45:32;5.50;;;2.72;;
41687;SDS011;27371;42.686;23.362;2024-01-30T09:47:58;4.45;;;2.55;;
41687;SDS011;27371;42.686;23.362;2024-01-30T09:50:24;4.10;;;2.40;;
41687;SDS011;27371;42.686;23.362;2024-01-30T09:52:49;5.82;;;2.53;;
41687;SDS011;27371;42.686;23.362;2024-01-30T09:55:16;6.07;;;2.40;;
41687;SDS011;27371;42.686;23.362;2024-01-30T09:57:42;6.50;;;2.30;;
41687;SDS011;27371;42.686;23.362;2024-01-30T10:00:07;6.85;;;2.55;;
41687;SDS011;27371;42.686;23.362;2024-01-30T10:02:33;3.55;;;1.85;;
41687;SDS011;27371;42.686;23.362;2024-01-30T10:04:59;5.43;;;2.05;;
41687;SDS011;27371;42.686;23.362;2024-01-30T10:07:25;3.22;;;2.25;;
41687;SDS011;27371;42.686;23.362;2024-01-30T10:09:50;4.60;;;2.45;;
41687;SDS011;27371;42.686;23.362;2024-01-30T10:12:16;4.22;;;2.58;;
41687;SDS011;27371;42.686;23.362;2024-01-30T10:14:42;2.92;;;1.90;;
41687;SDS011;27371;42.686;23.362;2024-01-30T10:17:11;3.00;;;1.88;;
41687;SDS011;27371;42.686;23.362;2024-01-30T10:19:40;5.80;;;2.55;;
41687;SDS011;27371;42.686;23.362;2024-01-30T10:22:05;4.13;;;2.13;;
41687;SDS011;27371;42.686;23.362;2024-01-30T10:24:32;3.28;;;2.00;;
41687;SDS011;27371;42.686;23.362;2024-01-30T10:26:58;7.60;;;2.67;;
41687;SDS011;27371;42.686;23.362;2024-01-30T10:29:23;6.57;;;2.97;;
41687;SDS011;27371;42.686;23.362;2024-01-30T10:32:02;4.57;;;2.20;;
41687;SDS011;27371;42.686;23.362;2024-01-30T10:34:27;6.50;;;1.83;;
41687;SDS011;27371;42.686;23.362;2024-01-30T10:37:00;3.50;;;2.17;;
41687;SDS011;27371;42.686;23.362;2024-01-30T10:39:30;3.25;;;2.00;;
41687;SDS011;27371;42.686;23.362;2024-01-30T10:41:59;4.22;;;2.42;;
41687;SDS011;27371;42.686;23.362;2024-01-30T10:44:27;3.85;;;2.22;;
41687;SDS011;27371;42.686;23.362;2024-01-30T10:46:56;3.17;;;1.95;;
41687;SDS011;27371;42.686;23.362;2024-01-30T10:49:23;3.20;;;1.80;;
41687;SDS011;27371;42.686;23.362;2024-01-30T10:51:49;2.85;;;1.50;;
41687;SDS011;27371;42.686;23.362;2024-01-30T10:54:15;3.15;;;2.05;;
41687;SDS011;27371;42.686;23.362;2024-01-30T10:56:40;3.35;;;1.92;;
41687;SDS011;27371;42.686;23.362;2024-01-30T10:59:06;3.28;;;1.60;;
41687;SDS011;27371;42.686;23.362;2024-01-30T11:01:32;3.30;;;1.95;;
41687;SDS011;27371;42.686;23.362;2024-01-30T11:03:57;3.63;;;1.92;;
41687;SDS011;27371;42.686;23.362;2024-01-30T11:06:23;2.35;;;1.40;;
41687;SDS011;27371;42.686;23.362;2024-01-30T11:09:02;2.30;;;1.65;;
41687;SDS011;27371;42.686;23.362;2024-01-30T11:11:56;3.75;;;1.90;;
41687;SDS011;27371;42.686;23.362;2024-01-30T11:14:31;4.03;;;2.35;;
41687;SDS011;27371;42.686;23.362;2024-01-30T11:16:59;4.10;;;2.10;;
41687;SDS011;27371;42.686;23.362;2024-01-30T11:19:31;4.28;;;2.47;;
41687;SDS011;27371;42.686;23.362;2024-01-30T11:21:57;4.72;;;2.13;;
41687;SDS011;27371;42.686;23.362;2024-01-30T11:24:23;6.78;;;2.60;;
41687;SDS011;27371;42.686;23.362;2024-01-30T11:26:49;5.72;;;2.40;;
41687;SDS011;27371;42.686;23.362;2024-01-30T11:29:16;3.67;;;2.08;;
41687;SDS011;27371;42.686;23.362;2024-01-30T11:31:51;4.22;;;1.67;;
41687;SDS011;27371;42.686;23.362;2024-01-30T11:34:16;3.80;;;2.08;;
41687;SDS011;27371;42.686;23.362;2024-01-30T11:36:42;3.25;;;2.05;;
41687;SDS011;27371;42.686;23.362;2024-01-30T11:39:08;3.30;;;1.92;;
41687;SDS011;27371;42.686;23.362;2024-01-30T11:41:33;3.95;;;1.90;;
41687;SDS011;27371;42.686;23.362;2024-01-30T11:43:59;3.00;;;1.63;;
41687;SDS011;27371;42.686;23.362;2024-01-30T11:46:24;4.40;;;2.22;;
41687;SDS011;27371;42.686;23.362;2024-01-30T11:48:50;4.50;;;2.03;;
41687;SDS011;27371;42.686;23.362;2024-01-30T11:51:16;4.20;;;1.92;;
41687;SDS011;27371;42.686;23.362;2024-01-30T11:53:44;4.88;;;2.05;;
41687;SDS011;27371;42.686;23.362;2024-01-30T11:56:09;4.50;;;2.70;;
41687;SDS011;27371;42.686;23.362;2024-01-30T11:58:37;5.03;;;2.83;;
41687;SDS011;27371;42.686;23.362;2024-01-30T12:01:02;3.60;;;2.38;;
41687;SDS011;27371;42.686;23.362;2024-01-30T12:03:28;3.17;;;1.92;;
41687;SDS011;27371;42.686;23.362;2024-01-30T12:05:56;3.38;;;1.92;;
41687;SDS011;27371;42.686;23.362;2024-01-30T12:08:23;5.22;;;2.55;;
41687;SDS011;27371;42.686;23.362;2024-01-30T12:10:58;4.38;;;2.22;;
41687;SDS011;27371;42.686;23.362;2024-01-30T12:13:24;5.82;;;2.60;;
41687;SDS011;27371;42.686;23.362;2024-01-30T12:15:50;3.97;;;2.17;;
41687;SDS011;27371;42.686;23.362;2024-01-30T12:18:18;3.22;;;2.25;;
41687;SDS011;27371;42.686;23.362;2024-01-30T12:20:43;4.85;;;2.25;;
41687;SDS011;27371;42.686;23.362;2024-01-30T12:23:09;3.80;;;2.03;;
41687;SDS011;27371;42.686;23.362;2024-01-30T12:25:36;7.70;;;2.42;;
41687;SDS011;27371;42.686;23.362;2024-01-30T12:28:02;4.25;;;2.00;;
41687;SDS011;27371;42.686;23.362;2024-01-30T12:30:27;3.10;;;2.20;;
41687;SDS011;27371;42.686;23.362;2024-01-30T12:32:53;4.82;;;2.88;;
41687;SDS011;27371;42.686;23.362;2024-01-30T12:35:19;5.93;;;2.17;;
41687;SDS011;27371;42.686;23.362;2024-01-30T12:37:46;5.53;;;2.17;;
41687;SDS011;27371;42.686;23.362;2024-01-30T12:40:12;8.55;;;2.40;;
41687;SDS011;27371;42.686;23.362;2024-01-30T12:42:46;3.30;;;2.30;;
41687;SDS011;27371;42.686;23.362;2024-01-30T12:45:13;5.35;;;2.92;;
41687;SDS011;27371;42.686;23.362;2024-01-30T12:47:39;3.85;;;2.00;;
41687;SDS011;27371;42.686;23.362;2024-01-30T12:50:05;7.03;;;2.25;;
41687;SDS011;27371;42.686;23.362;2024-01-30T12:52:31;4.78;;;2.65;;
41687;SDS011;27371;42.686;23.362;2024-01-30T12:54:56;4.38;;;2.45;;
41687;SDS011;27371;42.686;23.362;2024-01-30T12:57:21;5.40;;;2.63;;
41687;SDS011;27371;42.686;23.362;2024-01-30T12:59:47;6.25;;;2.40;;
41687;SDS011;27371;42.686;23.362;2024-01-30T13:02:12;6.38;;;2.70;;
41687;SDS011;27371;42.686;23.362;2024-01-30T13:04:38;5.35;;;2.90;;
41687;SDS011;27371;42.686;23.362;2024-01-30T13:07:04;4.75;;;2.95;;
41687;SDS011;27371;42.686;23.362;2024-01-30T13:09:30;6.72;;;2.90;;
41687;SDS011;27371;42.686;23.362;2024-01-30T13:11:56;4.53;;;2.95;;
41687;SDS011;27371;42.686;23.362;2024-01-30T13:14:22;5.25;;;3.05;;
41687;SDS011;27371;42.686;23.362;2024-01-30T13:16:47;4.00;;;2.55;;
41687;SDS011;27371;42.686;23.362;2024-01-30T13:19:12;5.25;;;2.97;;
41687;SDS011;27371;42.686;23.362;2024-01-30T13:21:38;4.60;;;2.92;;
41687;SDS011;27371;42.686;23.362;2024-01-30T13:24:03;4.65;;;2.75;;
41687;SDS011;27371;42.686;23.362;2024-01-30T13:26:29;7.20;;;2.70;;
41687;SDS011;27371;42.686;23.362;2024-01-30T13:28:56;5.03;;;2.92;;
41687;SDS011;27371;42.686;23.362;2024-01-30T13:31:21;8.73;;;3.15;;
41687;SDS011;27371;42.686;23.362;2024-01-30T13:33:47;5.55;;;3.17;;
41687;SDS011;27371;42.686;23.362;2024-01-30T13:36:13;9.93;;;3.95;;
41687;SDS011;27371;42.686;23.362;2024-01-30T13:38:39;5.68;;;3.30;;
41687;SDS011;27371;42.686;23.362;2024-01-30T13:41:04;7.05;;;3.13;;
41687;SDS011;27371;42.686;23.362;2024-01-30T13:43:30;5.53;;;3.50;;
41687;SDS011;27371;42.686;23.362;2024-01-30T13:45:55;4.63;;;3.35;;
41687;SDS011;27371;42.686;23.362;2024-01-30T13:48:21;5.63;;;3.63;;
41687;SDS011;27371;42.686;23.362;2024-01-30T13:50:46;7.85;;;3.97;;
41687;SDS011;27371;42.686;23.362;2024-01-30T13:53:12;5.60;;;3.58;;
41687;SDS011;27371;42.686;23.362;2024-01-30T13:55:38;6.38;;;3.53;;
41687;SDS011;27371;42.686;23.362;2024-01-30T13:58:04;6.68;;;3.35;;
41687;SDS011;27371;42.686;23.362;2024-01-30T14:00:30;5.43;;;3.13;;
41687;SDS011;27371;42.686;23.362;2024-01-30T14:02:55;6.38;;;3.63;;
41687;SDS011;27371;42.686;23.362;2024-01-30T14:05:21;7.97;;;3.53;;
41687;SDS011;27371;42.686;23.362;2024-01-30T14:07:47;6.18;;;3.70;;
41687;SDS011;27371;42.686;23.362;2024-01-30T14:10:12;6.72;;;3.95;;
41687;SDS011;27371;42.686;23.362;2024-01-30T14:12:38;10.13;;;4.05;;
41687;SDS011;27371;42.686;23.362;2024-01-30T14:15:04;6.72;;;3.75;;
41687;SDS011;27371;42.686;23.362;2024-01-30T14:17:29;6.40;;;3.72;;
41687;SDS011;27371;42.686;23.362;2024-01-30T14:19:54;8.68;;;3.67;;
41687;SDS011;27371;42.686;23.362;2024-01-30T14:22:20;8.10;;;4.15;;
41687;SDS011;27371;42.686;23.362;2024-01-30T14:24:45;5.75;;;3.42;;
41687;SDS011;27371;42.686;23.362;2024-01-30T14:27:12;8.10;;;4.28;;
41687;SDS011;27371;42.686;23.362;2024-01-30T14:29:37;7.03;;;3.13;;